Time;durP1;ratioP1;P1;durP2;ratioP2;P2;SDS_P1;SDS_P2;PMS_P1;PMS_P2;Temp;Humidity;BMP_temperature;BMP_pressure;BME280_temperature;BME280_humidity;BME280_pressure;Samples;Min_cycle;Max_cycle;Signal;HPM_P1;HPM_P2
2024/03/06 00:00:07;;;;;;;10.25;7.95;;;5.60;99.90;;;;;;5104893;27;20039;-67
2024/03/06 00:02:34;;;;;;;10.30;7.88;;;5.60;99.90;;;;;;5139538;27;20489;-67
2024/03/06 00:05:00;;;;;;;8.85;7.05;;;5.50;99.90;;;;;;5122504;27;20039;-67
2024/03/06 00:07:26;;;;;;;8.35;7.25;;;5.60;99.90;;;;;;5105219;27;20043;-67
2024/03/06 00:09:52;;;;;;;15.88;6.88;;;5.50;99.90;;;;;;5104894;27;20035;-67
2024/03/06 00:12:19;;;;;;;10.77;7.38;;;5.50;99.90;;;;;;5107303;27;20040;-67
2024/03/06 00:14:44;;;;;;;12.20;7.30;;;5.50;99.90;;;;;;5105632;27;20043;-67
2024/03/06 00:17:10;;;;;;;11.35;6.57;;;5.50;99.90;;;;;;5105530;27;20043;-67
2024/03/06 00:19:35;;;;;;;8.48;6.43;;;5.50;99.90;;;;;;5102761;27;20111;-67
2024/03/06 00:22:02;;;;;;;13.25;7.75;;;5.40;99.90;;;;;;5107394;27;20034;-67
2024/03/06 00:24:28;;;;;;;8.68;7.18;;;5.30;99.90;;;;;;5133551;27;20055;-67
2024/03/06 00:26:53;;;;;;;14.27;7.13;;;5.40;99.90;;;;;;5108617;27;20122;-67
2024/03/06 00:29:19;;;;;;;11.07;7.90;;;5.30;99.90;;;;;;5080762;28;20097;-67
2024/03/06 00:31:45;;;;;;;10.32;6.53;;;5.30;99.90;;;;;;5099482;27;20432;-67
2024/03/06 00:34:13;;;;;;;11.70;6.95;;;5.20;99.90;;;;;;5120096;27;20062;-67
2024/03/06 00:36:40;;;;;;;11.50;6.63;;;5.30;99.90;;;;;;5104199;27;20042;-67
2024/03/06 00:39:05;;;;;;;9.55;6.30;;;5.30;99.90;;;;;;5104353;27;20156;-67
2024/03/06 00:41:31;;;;;;;10.98;7.07;;;5.10;99.90;;;;;;5104715;27;20119;-67
2024/03/06 00:43:57;;;;;;;12.63;6.93;;;5.20;99.90;;;;;;5106337;27;20044;-67
2024/03/06 00:46:23;;;;;;;9.38;6.22;;;5.20;99.90;;;;;;5137158;27;20050;-67
2024/03/06 00:48:48;;;;;;;16.67;7.82;;;5.20;99.90;;;;;;5103846;27;20031;-67
2024/03/06 00:51:14;;;;;;;10.95;7.13;;;5.20;99.90;;;;;;5104550;27;20401;-67
2024/03/06 00:53:40;;;;;;;10.52;6.68;;;5.10;99.90;;;;;;5103701;27;20071;-67
2024/03/06 00:56:06;;;;;;;13.27;6.43;;;5.10;99.90;;;;;;5135766;27;20042;-67
2024/03/06 00:58:32;;;;;;;9.20;6.85;;;5.10;99.90;;;;;;5106753;27;20039;-67
2024/03/06 01:00:58;;;;;;;11.30;6.35;;;5.10;99.90;;;;;;5106069;27;20122;-67
2024/03/06 01:03:24;;;;;;;12.13;7.20;;;5.10;99.90;;;;;;5108020;27;20027;-67
2024/03/06 01:05:52;;;;;;;10.90;6.10;;;5.10;99.90;;;;;;5105755;27;20042;-67
2024/03/06 01:08:17;;;;;;;10.45;6.93;;;5.10;99.90;;;;;;5139025;27;20114;-67
2024/03/06 01:10:44;;;;;;;13.95;6.32;;;5.10;99.90;;;;;;5102343;27;20123;-67
2024/03/06 01:13:10;;;;;;;12.15;7.43;;;5.10;99.90;;;;;;5106537;27;20042;-67
2024/03/06 01:15:37;;;;;;;11.93;7.32;;;5.10;99.90;;;;;;5105517;27;20110;-67
2024/03/06 01:18:03;;;;;;;10.15;6.97;;;5.10;99.90;;;;;;5103094;27;20039;-67
2024/03/06 01:20:29;;;;;;;9.55;7.25;;;5.10;99.90;;;;;;5100224;27;20500;-67
2024/03/06 01:22:54;;;;;;;12.70;6.88;;;5.10;99.90;;;;;;5105201;27;20043;-67
2024/03/06 01:25:20;;;;;;;10.45;7.85;;;5.10;99.90;;;;;;5102035;28;20087;-67
2024/03/06 01:27:47;;;;;;;11.23;6.75;;;5.00;99.90;;;;;;5103015;27;20070;-67
2024/03/06 01:30:13;;;;;;;13.73;7.68;;;5.10;99.90;;;;;;5101925;28;20035;-67
2024/03/06 01:32:39;;;;;;;14.32;6.90;;;5.00;99.90;;;;;;5107362;27;20035;-67
2024/03/06 01:35:06;;;;;;;10.52;6.82;;;5.00;99.90;;;;;;5105316;27;20040;-67
2024/03/06 01:37:31;;;;;;;11.10;6.57;;;5.00;99.90;;;;;;5132588;27;20044;-67
2024/03/06 01:39:57;;;;;;;11.10;6.57;;;5.00;99.90;;;;;;5102898;28;20503;-67
2024/03/06 01:42:23;;;;;;;11.38;7.63;;;5.00;99.90;;;;;;5103306;28;20039;-67
2024/03/06 01:44:49;;;;;;;9.88;7.13;;;4.90;99.90;;;;;;5107009;28;20077;-67
2024/03/06 01:47:15;;;;;;;10.25;6.13;;;5.00;99.90;;;;;;5104194;28;20070;-67
2024/03/06 01:49:41;;;;;;;12.23;7.80;;;5.00;99.90;;;;;;5104055;28;20039;-67
2024/03/06 01:52:11;;;;;;;11.45;7.00;;;5.00;99.90;;;;;;5101173;28;20619;-67
2024/03/06 01:54:37;;;;;;;11.80;6.47;;;5.00;99.90;;;;;;5134064;27;20036;-67
2024/03/06 01:57:03;;;;;;;11.38;6.70;;;5.00;99.90;;;;;;5104559;28;20039;-66
2024/03/06 01:59:30;;;;;;;9.75;6.93;;;5.00;99.90;;;;;;5103245;28;20035;-67
2024/03/06 02:01:56;;;;;;;12.23;7.43;;;5.00;99.90;;;;;;5097621;28;20039;-67
2024/03/06 02:04:23;;;;;;;9.23;6.57;;;5.00;99.90;;;;;;5105398;28;20059;-67
2024/03/06 02:06:49;;;;;;;11.88;6.60;;;5.00;99.90;;;;;;5128486;27;20495;-67
2024/03/06 02:09:15;;;;;;;7.70;5.75;;;5.00;99.90;;;;;;5104666;28;20040;-67
2024/03/06 02:11:41;;;;;;;11.65;6.97;;;4.90;99.90;;;;;;5105255;28;20369;-67
2024/03/06 02:14:09;;;;;;;13.93;6.32;;;4.90;99.90;;;;;;5105788;28;20115;-67
2024/03/06 02:16:36;;;;;;;13.07;7.35;;;4.90;99.90;;;;;;5104106;28;20035;-67
2024/03/06 02:19:02;;;;;;;12.20;6.10;;;4.90;99.90;;;;;;5099691;28;20044;-67
2024/03/06 02:21:27;;;;;;;11.63;6.30;;;4.90;99.90;;;;;;5108065;28;20034;-67
2024/03/06 02:23:54;;;;;;;9.90;6.70;;;4.90;99.90;;;;;;5103071;28;20036;-67
2024/03/06 02:26:20;;;;;;;9.00;7.00;;;4.90;99.90;;;;;;5106796;28;20043;-67
2024/03/06 02:28:50;;;;;;;12.98;7.10;;;4.90;99.90;;;;;;5099238;28;20047;-67
2024/03/06 02:31:17;;;;;;;9.95;7.22;;;4.90;99.90;;;;;;5134386;27;20040;-67
2024/03/06 02:33:47;;;;;;;11.25;7.25;;;4.90;99.90;;;;;;5106516;27;20036;-67
2024/03/06 02:36:13;;;;;;;12.45;7.95;;;4.90;99.90;;;;;;5142007;27;20051;-67
2024/03/06 02:38:40;;;;;;;10.45;6.82;;;4.90;99.90;;;;;;5104244;27;20118;-67
2024/03/06 02:41:06;;;;;;;10.10;6.90;;;4.80;99.90;;;;;;5108662;27;20397;-67
2024/03/06 02:43:33;;;;;;;15.38;7.70;;;4.90;99.90;;;;;;5112119;27;20062;-67
2024/03/06 02:45:58;;;;;;;12.77;7.18;;;4.90;99.90;;;;;;5107468;27;20035;-67
2024/03/06 02:48:24;;;;;;;11.43;6.93;;;4.90;99.90;;;;;;5121499;27;20398;-66
2024/03/06 02:50:49;;;;;;;12.13;6.75;;;4.90;99.90;;;;;;5107386;27;20401;-67
2024/03/06 02:53:15;;;;;;;13.05;7.43;;;4.90;99.90;;;;;;5089194;28;20043;-67
2024/03/06 02:55:41;;;;;;;9.18;7.13;;;4.90;99.90;;;;;;5107817;27;20446;-67
2024/03/06 02:58:07;;;;;;;9.23;7.28;;;5.00;99.90;;;;;;5108034;27;20039;-67
2024/03/06 03:00:32;;;;;;;13.93;7.50;;;4.90;99.90;;;;;;5103351;27;20043;-67
2024/03/06 03:02:58;;;;;;;13.57;7.70;;;4.90;99.90;;;;;;5107831;27;20374;-67
2024/03/06 03:05:24;;;;;;;8.27;6.95;;;4.90;99.90;;;;;;5109389;27;20114;-67
2024/03/06 03:07:50;;;;;;;17.83;8.00;;;4.90;99.90;;;;;;5136482;27;20075;-67
2024/03/06 03:10:16;;;;;;;9.10;7.43;;;4.90;99.90;;;;;;5106182;27;20049;-66
2024/03/06 03:12:42;;;;;;;9.30;6.57;;;4.90;99.90;;;;;;5104874;27;20366;-67
2024/03/06 03:15:08;;;;;;;12.43;6.78;;;4.90;99.90;;;;;;5107247;27;20050;-67
2024/03/06 03:17:34;;;;;;;11.85;7.15;;;4.90;99.90;;;;;;5107104;27;20989;-67
2024/03/06 03:20:09;;;;;;;11.60;7.90;;;4.90;99.90;;;;;;5106609;27;20031;-67
2024/03/06 03:22:41;;;;;;;10.15;6.88;;;4.90;99.90;;;;;;5111483;27;20481;-67
2024/03/06 03:25:13;;;;;;;7.68;6.53;;;4.90;99.90;;;;;;5123853;27;20042;-67
2024/03/06 03:27:40;;;;;;;8.30;6.63;;;5.00;99.90;;;;;;5102829;27;20126;-66
2024/03/06 03:30:11;;;;;;;12.45;7.68;;;4.90;99.90;;;;;;5107814;27;20077;-67
2024/03/06 03:32:38;;;;;;;10.48;7.70;;;4.90;99.90;;;;;;5110692;27;20038;-67
2024/03/06 03:35:07;;;;;;;8.38;6.43;;;4.90;99.90;;;;;;5106882;27;20047;-66
2024/03/06 03:37:33;;;;;;;20.92;8.35;;;4.90;99.90;;;;;;5104556;27;20066;-67
2024/03/06 03:39:59;;;;;;;13.70;7.55;;;4.90;99.90;;;;;;5108222;27;20028;-67
2024/03/06 03:42:24;;;;;;;11.10;7.18;;;4.90;99.90;;;;;;5111465;27;20038;-67
2024/03/06 03:44:50;;;;;;;12.00;7.38;;;4.90;99.90;;;;;;5138608;27;20713;-67
2024/03/06 03:47:16;;;;;;;14.38;7.30;;;4.90;99.90;;;;;;5106416;27;20155;-67
2024/03/06 03:49:42;;;;;;;12.45;7.18;;;4.90;99.90;;;;;;5105100;27;20416;-67
2024/03/06 03:52:08;;;;;;;11.30;7.68;;;4.90;99.90;;;;;;5105773;27;20040;-67
2024/03/06 03:54:34;;;;;;;10.40;7.03;;;4.90;99.90;;;;;;5107979;27;20077;-67
2024/03/06 03:57:00;;;;;;;9.68;7.18;;;4.90;99.90;;;;;;5109314;27;20167;-67
2024/03/06 03:59:25;;;;;;;15.05;7.35;;;4.90;99.90;;;;;;5107749;27;20458;-67
2024/03/06 04:01:51;;;;;;;10.75;7.75;;;4.90;99.90;;;;;;5106735;27;20077;-67
2024/03/06 04:04:17;;;;;;;12.75;7.35;;;4.90;99.90;;;;;;5107513;27;20036;-67
2024/03/06 04:06:42;;;;;;;11.27;7.05;;;4.90;99.90;;;;;;5107504;27;20042;-67
2024/03/06 04:09:11;;;;;;;15.80;7.45;;;4.90;99.90;;;;;;5103503;27;20088;-66
2024/03/06 04:11:37;;;;;;;8.85;7.40;;;4.90;99.90;;;;;;5104826;27;20154;-67
2024/03/06 04:14:04;;;;;;;11.77;7.88;;;5.00;99.90;;;;;;5107983;27;20059;-67
2024/03/06 04:16:30;;;;;;;10.40;7.65;;;4.90;99.90;;;;;;5105266;27;20046;-67
2024/03/06 04:18:56;;;;;;;11.68;7.68;;;4.90;99.90;;;;;;5102464;27;20040;-67
2024/03/06 04:21:22;;;;;;;16.15;8.73;;;4.90;99.90;;;;;;5138531;27;20052;-67
2024/03/06 04:23:48;;;;;;;10.18;7.85;;;4.90;99.90;;;;;;5108634;27;20598;-67
2024/03/06 04:26:14;;;;;;;12.68;7.57;;;4.90;99.90;;;;;;5104052;27;20127;-67
2024/03/06 04:28:39;;;;;;;13.32;8.38;;;4.90;99.90;;;;;;5099895;27;20046;-67
2024/03/06 04:31:05;;;;;;;12.00;8.18;;;4.90;99.90;;;;;;5111988;27;20040;-67
2024/03/06 04:33:31;;;;;;;10.73;8.18;;;5.00;99.90;;;;;;5104919;27;20558;-67
2024/03/06 04:35:57;;;;;;;14.82;8.68;;;4.80;99.90;;;;;;5104787;27;20138;-67
2024/03/06 04:38:22;;;;;;;14.35;8.52;;;4.90;99.90;;;;;;5105887;27;20050;-67
2024/03/06 04:40:48;;;;;;;10.07;8.02;;;4.90;99.90;;;;;;5107792;27;20046;-67
2024/03/06 04:43:13;;;;;;;12.48;7.90;;;4.90;99.90;;;;;;5103727;27;20042;-67
2024/03/06 04:45:39;;;;;;;12.70;8.23;;;4.90;99.90;;;;;;5105115;27;20466;-67
2024/03/06 04:48:06;;;;;;;11.32;8.25;;;4.90;99.90;;;;;;5105172;27;20048;-67
2024/03/06 04:50:32;;;;;;;13.27;7.55;;;4.90;99.90;;;;;;5102656;27;21906;-67
2024/03/06 04:52:58;;;;;;;9.63;7.72;;;4.90;99.90;;;;;;5103374;27;20061;-67
2024/03/06 04:55:24;;;;;;;14.23;8.35;;;4.90;99.90;;;;;;5105030;27;20047;-67
2024/03/06 04:57:52;;;;;;;10.98;8.13;;;4.90;99.90;;;;;;5103990;27;20039;-67
2024/03/06 05:00:18;;;;;;;11.13;7.75;;;4.90;99.90;;;;;;5102870;28;20047;-67
2024/03/06 05:02:44;;;;;;;18.63;8.35;;;4.90;99.90;;;;;;5134860;27;20043;-67
2024/03/06 05:05:09;;;;;;;7.78;7.00;;;4.90;99.90;;;;;;5105993;27;20081;-67
2024/03/06 05:07:35;;;;;;;11.00;7.53;;;4.90;99.90;;;;;;5104688;27;20044;-67
2024/03/06 05:10:01;;;;;;;11.57;8.07;;;4.90;99.90;;;;;;5131261;27;20052;-67
2024/03/06 05:12:27;;;;;;;11.80;8.18;;;4.90;99.90;;;;;;5104500;27;20919;-67
2024/03/06 05:14:53;;;;;;;12.10;8.32;;;4.90;99.90;;;;;;5102596;27;20078;-67
2024/03/06 05:17:20;;;;;;;11.27;8.45;;;4.90;99.90;;;;;;5122863;27;20054;-67
2024/03/06 05:19:47;;;;;;;10.50;8.43;;;4.90;99.90;;;;;;5130803;27;20035;-67
2024/03/06 05:22:13;;;;;;;13.15;8.35;;;4.90;99.90;;;;;;5102053;27;20127;-67
2024/03/06 05:24:39;;;;;;;10.18;8.80;;;4.90;99.90;;;;;;5130866;27;20047;-67
2024/03/06 05:27:05;;;;;;;12.95;8.88;;;4.80;99.90;;;;;;5103157;27;20054;-67
2024/03/06 05:29:31;;;;;;;11.73;8.20;;;4.80;99.90;;;;;;5099836;27;20044;-67
2024/03/06 05:31:57;;;;;;;14.93;8.68;;;4.90;99.90;;;;;;5100876;28;20063;-67
2024/03/06 05:34:23;;;;;;;10.63;8.25;;;4.90;99.90;;;;;;5105609;28;20070;-67
2024/03/06 05:36:49;;;;;;;11.98;8.63;;;4.90;99.90;;;;;;5102325;28;20036;-67
2024/03/06 05:39:14;;;;;;;12.48;8.00;;;4.90;99.90;;;;;;5103937;27;20042;-67
2024/03/06 05:41:41;;;;;;;12.77;9.10;;;4.90;99.90;;;;;;5091650;28;20046;-67
2024/03/06 05:44:07;;;;;;;8.70;7.78;;;4.90;99.90;;;;;;5101644;28;20043;-67
2024/03/06 05:46:33;;;;;;;11.63;8.40;;;4.90;99.90;;;;;;5098710;28;20071;-67
2024/03/06 05:48:59;;;;;;;13.85;9.05;;;4.90;99.90;;;;;;5095631;28;20059;-67
2024/03/06 05:51:25;;;;;;;13.50;9.52;;;4.90;99.90;;;;;;5099417;28;20460;-66
2024/03/06 05:53:50;;;;;;;17.20;8.98;;;4.90;99.90;;;;;;5099136;28;20036;-67
2024/03/06 05:56:19;;;;;;;12.70;8.95;;;4.80;99.90;;;;;;5098077;28;20046;-67
2024/03/06 05:58:49;;;;;;;10.25;8.32;;;5.00;99.90;;;;;;5096180;28;20032;-67
2024/03/06 06:01:21;;;;;;;10.75;8.68;;;4.80;99.90;;;;;;5103919;28;20031;-67
2024/03/06 06:03:47;;;;;;;12.35;8.73;;;4.90;99.90;;;;;;5133693;27;20099;-67
2024/03/06 06:06:17;;;;;;;13.95;8.32;;;4.80;99.90;;;;;;5101657;27;20971;-67
2024/03/06 06:08:44;;;;;;;10.20;8.57;;;4.80;99.90;;;;;;5106837;28;20057;-67
2024/03/06 06:11:10;;;;;;;10.07;9.07;;;4.80;99.90;;;;;;5106015;27;20044;-67
2024/03/06 06:13:35;;;;;;;15.07;9.23;;;4.80;99.90;;;;;;5106813;27;20036;-67
2024/03/06 06:16:02;;;;;;;12.05;9.00;;;4.80;99.90;;;;;;5109745;27;20035;-67
2024/03/06 06:18:28;;;;;;;17.33;9.98;;;4.80;99.90;;;;;;5103245;27;20039;-67
2024/03/06 06:20:54;;;;;;;15.98;9.52;;;4.80;99.90;;;;;;5104541;27;20032;-67
2024/03/06 06:23:19;;;;;;;10.77;8.80;;;4.90;99.90;;;;;;5105996;27;20085;-67
2024/03/06 06:25:45;;;;;;;11.65;9.32;;;4.90;99.90;;;;;;5101535;27;20118;-66
2024/03/06 06:28:11;;;;;;;20.17;10.18;;;4.80;99.90;;;;;;5103488;27;20448;-66
2024/03/06 06:30:38;;;;;;;13.75;9.35;;;4.80;99.90;;;;;;5104415;27;20088;-67
2024/03/06 06:33:04;;;;;;;12.43;9.82;;;4.80;99.90;;;;;;5105896;27;20050;-66
2024/03/06 06:35:30;;;;;;;15.68;9.07;;;4.80;99.90;;;;;;5103883;27;20451;-66
2024/03/06 06:37:56;;;;;;;12.65;9.35;;;4.80;99.90;;;;;;5105500;27;20036;-66
2024/03/06 06:40:21;;;;;;;11.77;10.10;;;4.80;99.90;;;;;;5102567;27;20141;-67
2024/03/06 06:42:51;;;;;;;17.88;10.07;;;4.80;99.90;;;;;;5103623;27;20062;-67
2024/03/06 06:45:17;;;;;;;13.90;9.52;;;4.80;99.90;;;;;;5085162;28;20497;-67
2024/03/06 06:47:44;;;;;;;11.73;9.23;;;4.80;99.90;;;;;;5107093;27;20042;-67
2024/03/06 06:50:11;;;;;;;12.02;9.10;;;4.80;99.90;;;;;;5104984;27;20047;-67
2024/03/06 06:52:40;;;;;;;13.38;9.65;;;4.80;99.90;;;;;;5109020;27;20389;-67
2024/03/06 06:55:06;;;;;;;21.77;11.02;;;4.70;99.90;;;;;;5104407;27;20474;-67
2024/03/06 06:57:33;;;;;;;11.02;9.30;;;4.80;99.90;;;;;;5132799;27;20642;-67
2024/03/06 06:59:59;;;;;;;15.27;9.88;;;4.80;99.90;;;;;;5100043;27;20040;-67
2024/03/06 07:02:25;;;;;;;13.43;9.43;;;4.80;99.90;;;;;;5102826;27;20663;-66
2024/03/06 07:04:52;;;;;;;15.57;10.85;;;4.80;99.90;;;;;;5103351;27;20039;-67
2024/03/06 07:07:17;;;;;;;15.77;10.80;;;4.80;99.90;;;;;;5108531;27;20044;-66
2024/03/06 07:09:44;;;;;;;14.82;10.43;;;4.80;99.90;;;;;;5102254;27;20085;-67
2024/03/06 07:12:09;;;;;;;13.77;9.93;;;4.80;99.90;;;;;;5135690;27;21212;-67
2024/03/06 07:14:35;;;;;;;16.98;10.75;;;4.80;99.90;;;;;;5102369;27;20105;-67
2024/03/06 07:17:01;;;;;;;16.17;11.00;;;4.90;99.90;;;;;;5128285;27;20078;-66
2024/03/06 07:19:26;;;;;;;12.63;9.85;;;4.80;99.90;;;;;;5098605;27;20466;-66
2024/03/06 07:21:53;;;;;;;15.75;10.70;;;4.90;99.90;;;;;;5097011;27;20035;-67
2024/03/06 07:24:19;;;;;;;12.70;10.48;;;4.80;99.90;;;;;;5097729;27;20036;-67
2024/03/06 07:26:45;;;;;;;15.00;10.07;;;4.80;99.90;;;;;;5133636;27;20040;-67
2024/03/06 07:29:17;;;;;;;16.80;10.25;;;4.80;99.90;;;;;;5101651;28;20514;-67
2024/03/06 07:31:47;;;;;;;13.02;9.88;;;4.90;99.90;;;;;;5128608;27;20054;-67
2024/03/06 07:34:14;;;;;;;14.30;10.23;;;4.90;99.90;;;;;;5095727;27;20379;-67
2024/03/06 07:36:40;;;;;;;13.57;10.10;;;4.80;99.90;;;;;;5097059;28;20051;-67
2024/03/06 07:39:07;;;;;;;11.82;9.57;;;4.90;99.90;;;;;;5094391;28;20148;-67
2024/03/06 07:41:33;;;;;;;12.90;10.32;;;4.90;99.90;;;;;;5096466;28;20067;-67
2024/03/06 07:43:59;;;;;;;18.60;11.13;;;4.90;99.90;;;;;;5100638;28;20750;-67
2024/03/06 07:46:25;;;;;;;14.70;11.88;;;4.90;99.90;;;;;;5096193;28;20154;-67
2024/03/06 07:48:51;;;;;;;13.18;10.50;;;4.90;99.90;;;;;;5093971;28;20089;-67
2024/03/06 07:51:17;;;;;;;11.07;9.85;;;4.90;99.90;;;;;;5098456;28;20097;-67
2024/03/06 07:53:43;;;;;;;14.98;10.52;;;5.00;99.90;;;;;;5098648;28;20047;-67
2024/03/06 07:56:12;;;;;;;12.40;9.82;;;5.00;99.90;;;;;;5098273;28;20035;-67
2024/03/06 07:58:38;;;;;;;16.38;10.57;;;5.00;99.90;;;;;;5095693;28;20420;-66
2024/03/06 08:01:04;;;;;;;15.73;10.52;;;5.00;99.90;;;;;;5095609;28;20043;-67
2024/03/06 08:03:30;;;;;;;11.70;9.88;;;5.00;99.90;;;;;;5094212;28;20039;-66
2024/03/06 08:05:55;;;;;;;11.48;9.57;;;5.00;99.90;;;;;;5097813;28;20047;-66
2024/03/06 08:08:21;;;;;;;10.85;9.35;;;5.00;99.90;;;;;;5099399;28;20751;-67
2024/03/06 08:10:47;;;;;;;11.38;9.82;;;5.00;99.90;;;;;;5091629;28;20146;-67
2024/03/06 08:13:14;;;;;;;14.18;9.73;;;5.10;99.90;;;;;;5094419;28;20660;-67
2024/03/06 08:15:39;;;;;;;18.40;11.00;;;5.00;99.90;;;;;;5100053;27;20032;-66
2024/03/06 08:18:06;;;;;;;13.88;10.68;;;5.10;99.90;;;;;;5076702;28;20047;-67
2024/03/06 08:20:32;;;;;;;13.85;10.70;;;5.10;99.90;;;;;;5093744;27;20108;-66
2024/03/06 08:22:59;;;;;;;12.10;10.23;;;5.10;99.90;;;;;;5100310;28;20052;-67
2024/03/06 08:25:24;;;;;;;18.17;10.30;;;5.10;99.90;;;;;;5095972;28;20051;-67
2024/03/06 08:27:50;;;;;;;13.80;9.80;;;5.10;99.90;;;;;;5098785;28;20039;-67
2024/03/06 08:30:16;;;;;;;12.98;9.60;;;5.20;99.90;;;;;;5129176;27;20051;-67
2024/03/06 08:32:43;;;;;;;11.52;9.85;;;5.20;99.90;;;;;;5075423;28;20040;-67
2024/03/06 08:35:11;;;;;;;12.60;10.02;;;5.20;99.90;;;;;;5094704;28;20090;-67
2024/03/06 08:37:38;;;;;;;17.33;10.10;;;5.20;99.90;;;;;;5130996;27;20115;-67
2024/03/06 08:40:05;;;;;;;12.60;10.18;;;5.30;99.90;;;;;;5109128;27;20044;-67
2024/03/06 08:42:32;;;;;;;15.13;10.27;;;5.30;99.90;;;;;;5130718;27;20050;-67
2024/03/06 08:44:58;;;;;;;13.25;10.25;;;5.40;99.90;;;;;;5080201;28;20770;-67
2024/03/06 08:47:23;;;;;;;14.43;9.70;;;5.30;99.90;;;;;;5114323;27;20093;-67
2024/03/06 08:49:49;;;;;;;12.00;10.43;;;5.40;99.90;;;;;;5096637;28;20043;-67
2024/03/06 08:52:15;;;;;;;12.60;10.52;;;5.70;99.90;;;;;;5127189;27;20050;-67
2024/03/06 08:54:41;;;;;;;11.57;10.18;;;5.40;99.90;;;;;;5099217;28;20032;-67
2024/03/06 08:57:08;;;;;;;13.40;10.00;;;5.50;99.90;;;;;;5097453;28;20031;-67
2024/03/06 08:59:37;;;;;;;14.07;9.38;;;5.40;99.90;;;;;;5093213;28;20040;-67
2024/03/06 09:02:18;;;;;;;17.02;10.13;;;5.40;99.90;;;;;;5096152;28;20097;-66
2024/03/06 09:04:44;;;;;;;15.50;10.35;;;5.50;99.90;;;;;;5127460;27;20079;-67
2024/03/06 09:07:10;;;;;;;13.63;9.98;;;5.50;99.90;;;;;;5132328;27;20039;-67
2024/03/06 09:09:37;;;;;;;14.75;10.55;;;5.50;99.90;;;;;;5096146;28;20035;-67
2024/03/06 09:12:05;;;;;;;14.77;10.10;;;5.50;99.90;;;;;;5099198;27;20040;-67
2024/03/06 09:14:32;;;;;;;11.65;10.02;;;5.60;99.90;;;;;;5096963;28;20032;-66
2024/03/06 09:16:58;;;;;;;14.57;10.48;;;5.50;99.90;;;;;;5093701;28;20383;-67
2024/03/06 09:19:24;;;;;;;16.45;10.88;;;5.50;99.90;;;;;;5098511;28;20039;-67
2024/03/06 09:21:50;;;;;;;15.60;9.98;;;5.60;99.90;;;;;;5095789;28;20048;-67
2024/03/06 09:24:15;;;;;;;20.42;10.18;;;5.60;99.90;;;;;;5094141;28;20163;-67
2024/03/06 09:26:41;;;;;;;12.10;9.55;;;5.60;99.90;;;;;;5090469;28;20043;-67
2024/03/06 09:29:07;;;;;;;15.90;10.75;;;5.60;99.90;;;;;;5130164;27;20093;-67
2024/03/06 09:31:32;;;;;;;13.55;10.10;;;5.60;99.90;;;;;;5088599;28;20032;-67
2024/03/06 09:33:58;;;;;;;17.05;10.85;;;5.60;99.90;;;;;;5091825;28;20138;-67
2024/03/06 09:36:25;;;;;;;13.18;10.40;;;5.60;99.90;;;;;;5098463;28;20043;-67
2024/03/06 09:38:52;;;;;;;13.95;11.10;;;5.60;99.90;;;;;;5094325;28;20829;-67
2024/03/06 09:41:18;;;;;;;14.63;10.85;;;5.70;99.90;;;;;;5096485;28;20051;-67
2024/03/06 09:43:45;;;;;;;12.43;10.43;;;5.70;99.90;;;;;;5097928;28;20043;-67
2024/03/06 09:46:11;;;;;;;15.70;12.13;;;5.70;99.90;;;;;;5094407;28;20035;-67
2024/03/06 09:48:45;;;;;;;13.85;11.48;;;5.70;99.90;;;;;;5090234;28;20040;-66
2024/03/06 09:51:31;;;;;;;12.07;10.77;;;5.70;99.90;;;;;;5098055;28;20087;-66
2024/03/06 09:53:58;;;;;;;;;;;5.70;99.90;;;;;;5096817;28;20194;-66
2024/03/06 09:56:24;;;;;;;;;;;5.80;99.90;;;;;;5097205;28;19924;-67
2024/03/06 09:58:49;;;;;;;;;;;5.70;99.90;;;;;;5099977;28;19927;-67
2024/03/06 10:01:17;;;;;;;12.77;11.48;;;5.70;99.90;;;;;;5120992;27;19962;-67
2024/03/06 10:03:43;;;;;;;13.05;11.65;;;5.70;99.90;;;;;;5092996;28;20053;-67
2024/03/06 10:06:09;;;;;;;18.02;12.68;;;5.70;99.90;;;;;;5113141;27;20040;-67
2024/03/06 10:08:37;;;;;;;16.20;12.10;;;5.80;99.90;;;;;;5093615;28;20931;-67
2024/03/06 10:11:03;;;;;;;16.48;11.80;;;5.80;99.90;;;;;;5098987;28;20044;-67
2024/03/06 10:13:29;;;;;;;15.73;11.82;;;5.80;99.90;;;;;;5093118;28;20043;-67
2024/03/06 10:16:02;;;;;;;16.85;12.23;;;5.90;99.90;;;;;;5095846;28;20118;-67
2024/03/06 10:18:29;;;;;;;16.67;12.05;;;5.80;99.90;;;;;;5093512;28;20044;-67
2024/03/06 10:20:55;;;;;;;17.15;11.43;;;5.90;99.90;;;;;;5094031;28;20741;-66
2024/03/06 10:23:21;;;;;;;15.27;10.98;;;5.90;99.90;;;;;;5097208;27;20043;-67
2024/03/06 10:25:52;;;;;;;16.45;11.88;;;6.00;99.90;;;;;;5094113;28;20466;-67
2024/03/06 10:28:19;;;;;;;13.43;11.38;;;6.00;99.90;;;;;;5095745;28;20039;-67
2024/03/06 10:30:45;;;;;;;13.15;11.60;;;5.90;99.90;;;;;;5086709;28;20141;-67
2024/03/06 10:33:15;;;;;;;17.58;13.10;;;6.00;99.90;;;;;;5097024;28;20084;-67
2024/03/06 10:35:43;;;;;;;17.20;11.80;;;6.10;99.90;;;;;;5097387;28;20065;-67
2024/03/06 10:38:10;;;;;;;16.25;12.30;;;6.10;99.90;;;;;;5093821;28;20100;-67
2024/03/06 10:40:38;;;;;;;15.82;13.18;;;6.10;99.90;;;;;;5095753;28;20121;-67
2024/03/06 10:43:05;;;;;;;15.90;12.52;;;6.10;99.90;;;;;;5093445;28;20043;-67
2024/03/06 10:45:49;;;;;;;16.90;12.23;;;6.20;99.90;;;;;;5131272;27;20154;-67
2024/03/06 10:48:19;;;;;;;15.13;12.55;;;6.20;99.90;;;;;;5093672;28;20066;-67
2024/03/06 10:50:46;;;;;;;19.02;13.32;;;6.20;99.90;;;;;;5092807;28;20400;-67
2024/03/06 10:53:15;;;;;;;16.52;12.80;;;6.30;99.90;;;;;;5096556;28;20118;-67
2024/03/06 10:55:44;;;;;;;20.23;13.77;;;6.30;99.90;;;;;;5087527;28;20035;-66
2024/03/06 10:58:10;;;;;;;20.75;12.57;;;6.40;99.90;;;;;;5095829;28;20123;-67
2024/03/06 11:00:47;;;;;;;22.98;14.35;;;6.30;99.90;;;;;;5097281;28;20040;-67
2024/03/06 11:03:13;;;;;;;20.88;13.57;;;6.40;99.90;;;;;;5133754;27;20036;-67
2024/03/06 11:05:46;;;;;;;19.55;13.57;;;6.40;99.90;;;;;;5096939;28;20493;-67
2024/03/06 11:08:13;;;;;;;17.00;13.45;;;7.10;99.90;;;;;;5098536;28;20052;-67
2024/03/06 11:10:41;;;;;;;19.90;14.35;;;6.40;99.90;;;;;;5093745;27;20497;-67
2024/03/06 11:13:24;;;;;;;21.67;13.27;;;6.50;99.90;;;;;;5098283;28;20466;-67
2024/03/06 11:15:51;;;;;;;18.75;14.10;;;6.40;99.90;;;;;;5096675;28;20043;-67
2024/03/06 11:18:29;;;;;;;18.38;13.88;;;6.50;99.90;;;;;;5134360;27;20083;-67
2024/03/06 11:21:04;;;;;;;18.83;14.50;;;6.50;99.90;;;;;;5092299;28;20051;-67
2024/03/06 11:23:31;;;;;;;19.02;15.13;;;6.40;99.90;;;;;;5100522;28;20048;-67
2024/03/06 11:26:00;;;;;;;19.27;14.07;;;6.50;99.90;;;;;;5131062;27;20059;-67
2024/03/06 11:28:28;;;;;;;23.20;14.55;;;6.50;99.90;;;;;;5134448;27;20051;-67
2024/03/06 11:30:58;;;;;;;21.95;14.95;;;6.50;99.90;;;;;;5092349;28;20766;-67
2024/03/06 11:33:38;;;;;;;20.65;15.48;;;6.50;99.90;;;;;;5102262;27;20048;-67
2024/03/06 11:36:25;;;;;;;23.45;15.57;;;6.50;99.90;;;;;;5089763;28;20048;-67
2024/03/06 11:39:03;;;;;;;22.17;15.40;;;6.50;99.90;;;;;;5134788;27;20098;-67
2024/03/06 11:41:48;;;;;;;25.83;16.30;;;6.60;99.90;;;;;;5092240;28;20036;-67
2024/03/06 11:44:22;;;;;;;20.10;14.52;;;6.70;99.90;;;;;;5101080;27;20036;-67
2024/03/06 11:46:52;;;;;;;29.52;15.90;;;6.90;99.90;;;;;;5099430;27;20066;-67
2024/03/06 11:49:29;;;;;;;20.20;14.95;;;6.70;99.90;;;;;;5113602;27;21635;-67
2024/03/06 11:52:07;;;;;;;26.10;16.55;;;6.70;99.90;;;;;;5080800;28;20099;-67
2024/03/06 11:54:33;;;;;;;27.48;17.05;;;6.70;99.90;;;;;;5098365;27;20050;-67
2024/03/06 11:57:02;;;;;;;23.67;16.05;;;6.80;99.90;;;;;;5113713;27;20040;-67
2024/03/06 11:59:32;;;;;;;26.77;15.68;;;6.80;99.90;;;;;;5127036;27;20051;-67
2024/03/06 12:02:04;;;;;;;26.65;17.45;;;6.80;99.90;;;;;;5099822;27;20040;-67
2024/03/06 12:04:36;;;;;;;30.92;18.05;;;6.80;99.90;;;;;;5096520;27;20062;-67
2024/03/06 12:07:05;;;;;;;26.25;16.92;;;6.70;99.90;;;;;;5097403;27;20398;-67
2024/03/06 12:09:36;;;;;;;28.58;18.17;;;6.80;99.90;;;;;;5095123;28;20028;-67
2024/03/06 12:12:02;;;;;;;31.38;19.10;;;6.80;99.90;;;;;;5100571;27;20098;-67
2024/03/06 12:14:27;;;;;;;28.67;17.58;;;6.80;99.90;;;;;;5100576;27;20393;-67
2024/03/06 12:16:57;;;;;;;27.20;17.60;;;6.80;99.90;;;;;;5101850;28;20146;-67
2024/03/06 12:19:26;;;;;;;25.92;18.45;;;6.80;99.90;;;;;;5114103;27;20043;-67
2024/03/06 12:21:53;;;;;;;29.58;16.98;;;6.80;99.90;;;;;;5100425;28;20050;-67
2024/03/06 12:24:19;;;;;;;23.40;17.67;;;6.90;99.90;;;;;;5130111;27;20043;-67
2024/03/06 12:26:45;;;;;;;26.77;17.05;;;6.90;99.90;;;;;;5098521;28;20036;-67
2024/03/06 12:29:11;;;;;;;23.50;16.42;;;6.90;99.90;;;;;;5130697;27;20044;-67
2024/03/06 12:31:42;;;;;;;26.40;17.67;;;6.90;99.90;;;;;;5097558;28;20513;-67
2024/03/06 12:34:13;;;;;;;25.60;17.42;;;6.90;99.90;;;;;;5129863;27;20120;-67
2024/03/06 12:36:38;;;;;;;26.27;16.77;;;6.90;99.90;;;;;;5098707;28;20040;-67
2024/03/06 12:39:12;;;;;;;23.00;16.92;;;7.00;99.90;;;;;;5125961;27;20505;-67
2024/03/06 12:41:39;;;;;;;24.42;16.98;;;7.00;99.90;;;;;;5098662;27;20177;-67
2024/03/06 12:44:06;;;;;;;24.95;17.13;;;6.90;99.90;;;;;;5096405;28;20128;-67